Ettrick, Wisconsin
Current Conditions -  °F | °C
As of 8:53 AM on Saturday 20 Dec 2014 (Local Time) from KLSE Reporting Station
Overcast Overcast  
Wind Chill: -5°   Ceiling: 1300
Heat Index: -1°   Visibility: 8mi
Dew Point: -4°   Wind: 8mph
Humidity: 76%   Direction: 160°SSE
Pressure: 30.22"   Gusts: NA
Location:  44.17°N, 91.27°W
Report Text: KLSE 201453Z 16007KT 8SM OVC013 M01/M04 A3022 RMK AO2 SLP247 T10061044 53001 $
Loading
Personal Weather Stations






























Interactive Weather Map New forecast layout! Learn more

10-Day Weather Forecast

Advertisements
Track Severe Weather on mobile